Time;durP1;ratioP1;P1;durP2;ratioP2;P2;SDS_P1;SDS_P2;PMS_P1;PMS_P2;Temp;Humidity;BMP_temperature;BMP_pressure;BME280_temperature;BME280_humidity;BME280_pressure;Samples;Min_cycle;Max_cycle;Signal;HPM_P1;HPM_P2
2022/01/14 00:02:08;;;;;;;13.85;6.35;;;1.30;99.90;;;1.28;100.00;102857.59;5092168;28;20207;-65
2022/01/14 00:04:37;;;;;;;12.80;4.75;;;1.30;99.90;;;1.32;100.00;102854.19;5090501;28;20306;-65
2022/01/14 00:07:05;;;;;;;7.75;4.60;;;1.40;99.90;;;1.36;100.00;102850.75;5072960;28;20696;-65
2022/01/14 00:09:34;;;;;;;15.63;6.78;;;1.40;99.90;;;1.27;100.00;102852.47;5090850;28;20242;-65
2022/01/14 00:12:09;;;;;;;12.15;6.15;;;1.30;99.90;;;1.35;100.00;102843.91;5090522;28;20228;-65
2022/01/14 00:14:39;;;;;;;10.73;5.15;;;1.40;99.90;;;1.35;100.00;102846.47;5072772;28;20202;-65
2022/01/14 00:17:13;;;;;;;7.82;4.65;;;1.40;99.90;;;1.30;100.00;102842.19;5090660;28;20226;-66
2022/01/14 00:19:42;;;;;;;10.05;5.07;;;1.30;99.90;;;1.23;100.00;102837.91;5090724;28;20215;-65
2022/01/14 00:22:14;;;;;;;10.40;5.15;;;1.30;99.90;;;1.19;100.00;102838.75;5091518;28;20713;-65
2022/01/14 00:33:08;;;;;;;8.55;4.57;;;1.20;99.90;;;1.18;100.00;102821.59;5091895;28;20291;-65
2022/01/14 00:35:41;;;;;;;5.43;3.85;;;1.20;99.90;;;1.17;100.00;102819.88;5072756;28;20196;-65
2022/01/14 00:38:10;;;;;;;7.70;4.30;;;1.20;99.90;;;1.18;100.00;102814.75;5090925;28;20233;-65
2022/01/14 00:40:38;;;;;;;8.05;3.55;;;1.20;99.90;;;1.16;100.00;102813.00;5072482;28;20206;-66
2022/01/14 00:43:05;;;;;;;11.55;5.82;;;1.20;99.90;;;1.16;100.00;102813.00;5066131;28;20196;-66
2022/01/14 00:45:32;;;;;;;11.35;5.82;;;1.20;99.90;;;1.19;100.00;102803.56;5091209;28;20310;-64
2022/01/14 00:48:02;;;;;;;9.73;5.00;;;1.20;99.90;;;1.23;100.00;102799.31;5072803;28;20306;-65
2022/01/14 00:50:29;;;;;;;5.20;3.47;;;1.20;99.90;;;1.22;100.00;102800.16;5090222;28;20294;-65
2022/01/14 00:52:56;;;;;;;10.00;5.00;;;1.20;99.90;;;1.13;100.00;102790.72;5090106;28;20196;-65
2022/01/14 00:55:42;;;;;;;10.15;4.55;;;1.20;99.90;;;1.17;100.00;102791.59;5067935;28;20278;-65
2022/01/14 01:00:55;;;;;;;6.85;3.80;;;1.20;99.90;;;1.08;100.00;102794.16;5090512;28;20210;-65
2022/01/14 01:03:22;;;;;;;3.15;2.72;;;1.10;99.90;;;1.04;100.00;102788.16;5072459;28;20204;-65
2022/01/14 01:05:49;;;;;;;9.40;3.90;;;1.10;99.90;;;1.01;100.00;102785.56;5089385;28;20226;-65
2022/01/14 01:08:21;;;;;;;8.50;3.95;;;1.00;99.90;;;1.02;100.00;102787.31;5072054;28;20732;-65
2022/01/14 01:10:50;;;;;;;11.60;5.40;;;1.00;99.90;;;1.02;100.00;102792.44;5072151;28;20192;-65
2022/01/14 01:13:25;;;;;;;5.93;3.15;;;1.10;99.90;;;1.07;100.00;102797.56;5090106;28;20204;-65
2022/01/14 01:15:53;;;;;;;8.40;4.00;;;1.10;99.90;;;1.12;100.00;102793.28;5089024;28;20363;-65
2022/01/14 01:18:22;;;;;;;6.65;4.43;;;1.10;99.90;;;1.03;100.00;102799.28;5088677;28;20216;-65
2022/01/14 01:20:50;;;;;;;3.40;3.10;;;1.00;99.90;;;1.00;100.00;102799.28;5089501;28;20683;-65
2022/01/14 01:23:17;;;;;;;11.60;5.80;;;1.00;99.90;;;0.96;100.00;102801.84;5071310;28;20204;-65
2022/01/14 01:25:55;;;;;;;5.00;3.35;;;1.00;99.90;;;0.91;100.00;102803.56;5090636;28;20223;-65
2022/01/14 01:28:22;;;;;;;8.55;4.63;;;0.90;99.90;;;0.91;100.00;102809.56;5089324;28;20262;-64
2022/01/14 01:33:21;;;;;;;7.03;3.75;;;1.00;99.90;;;0.95;100.00;102810.41;5089224;28;20738;-64
2022/01/14 01:35:48;;;;;;;8.63;4.15;;;1.00;99.90;;;0.98;100.00;102805.28;5090694;28;20579;-66
2022/01/14 01:38:17;;;;;;;7.10;4.10;;;1.00;99.90;;;0.91;100.00;102809.56;5089801;28;20223;-65
2022/01/14 01:40:46;;;;;;;3.83;2.92;;;1.00;99.90;;;0.94;100.00;102814.69;5089073;28;20201;-65
2022/01/14 01:43:15;;;;;;;7.75;3.50;;;1.00;99.90;;;0.98;100.00;102807.84;5089798;28;20263;-65
2022/01/14 01:45:47;;;;;;;7.97;4.30;;;1.10;99.90;;;0.99;100.00;102809.56;5089876;28;20220;-65
2022/01/14 01:48:14;;;;;;;6.40;4.28;;;1.00;99.90;;;0.97;100.00;102803.56;5072363;28;20731;-65
2022/01/14 01:50:41;;;;;;;3.75;2.30;;;1.00;99.90;;;0.99;100.00;102795.00;5088861;28;20723;-65
2022/01/14 01:53:08;;;;;;;5.32;3.28;;;1.00;99.90;;;0.95;100.00;102795.00;5089587;28;20191;-64
2022/01/14 01:55:35;;;;;;;2.92;2.63;;;1.00;99.90;;;0.97;100.00;102799.28;5090258;28;20548;-65
2022/01/14 01:58:02;;;;;;;3.22;2.35;;;1.00;99.90;;;0.99;100.00;102796.72;5088354;28;20787;-64
2022/01/14 02:00:29;;;;;;;2.47;1.65;;;1.10;99.90;;;1.01;100.00;102795.84;5089440;28;20208;-65
2022/01/14 02:02:58;;;;;;;2.15;1.95;;;1.10;99.90;;;1.01;100.00;102798.44;5089703;28;20246;-65
2022/01/14 02:05:25;;;;;;;3.10;2.42;;;1.10;99.90;;;1.01;100.00;102789.84;5070719;28;20212;-65
2022/01/14 02:07:52;;;;;;;7.65;3.22;;;1.00;99.90;;;1.02;100.00;102797.59;5071537;28;20230;-65
2022/01/14 02:10:22;;;;;;;3.35;2.42;;;1.10;99.90;;;1.04;100.00;102795.00;5092999;28;20199;-65
2022/01/14 02:12:51;;;;;;;5.65;3.35;;;1.10;99.90;;;1.06;100.00;102781.31;5076802;28;20196;-65
2022/01/14 02:16:12;;;;;;;6.50;3.80;;;1.10;99.90;;;1.00;100.00;102786.41;5093018;28;20196;-65
2022/01/14 02:18:33;;;;;;;4.88;3.83;;;1.10;99.90;;;1.01;100.00;102779.56;5088710;28;20310;-65
2022/01/14 02:23:56;;;;;;;6.00;2.53;;;1.10;99.90;;;1.02;100.00;102761.59;5092503;28;20199;-64
2022/01/14 02:26:23;;;;;;;2.63;2.40;;;1.10;99.90;;;1.02;100.00;102760.72;5074270;28;20219;-65
2022/01/14 02:28:51;;;;;;;5.65;2.50;;;1.10;99.90;;;1.02;100.00;102759.03;5092212;28;20732;-64
2022/01/14 02:31:18;;;;;;;2.40;2.20;;;1.10;99.90;;;1.06;100.00;102754.72;5080504;28;20196;-65
2022/01/14 02:33:45;;;;;;;5.07;2.20;;;1.20;99.90;;;1.04;100.00;102756.44;5072776;28;20615;-65
2022/01/14 02:36:12;;;;;;;8.50;3.83;;;1.10;99.90;;;1.04;100.00;102754.75;5091119;28;20691;-65
2022/01/14 02:38:39;;;;;;;2.65;1.30;;;1.10;99.90;;;1.04;100.00;102749.59;5093826;28;20240;-65
2022/01/14 02:41:06;;;;;;;5.32;3.33;;;1.10;99.90;;;1.02;100.00;102748.75;5092209;28;20200;-65
2022/01/14 02:43:34;;;;;;;5.78;3.55;;;1.10;99.90;;;0.99;100.00;102735.88;5074777;28;20204;-65
2022/01/14 02:46:04;;;;;;;6.22;3.78;;;1.00;99.90;;;1.03;100.00;102742.72;5093074;28;20216;-65
2022/01/14 02:48:31;;;;;;;5.43;3.35;;;1.10;99.90;;;1.10;100.00;102739.31;5093227;28;20248;-65
2022/01/14 02:51:09;;;;;;;3.00;2.75;;;1.20;99.90;;;1.07;100.00;102739.28;5092018;28;20200;-65
2022/01/14 02:56:06;;;;;;;7.47;4.40;;;1.20;99.90;;;1.04;100.00;102741.03;5092468;28;20203;-65
2022/01/14 02:58:35;;;;;;;6.53;2.60;;;1.10;99.90;;;1.06;100.00;102736.72;5092254;28;20220;-65
2022/01/14 03:01:10;;;;;;;8.57;3.97;;;1.10;99.90;;;1.08;100.00;102729.88;5092634;28;20200;-65
2022/01/14 03:03:40;;;;;;;6.78;3.80;;;1.10;99.90;;;1.09;100.00;102735.00;5092188;28;20210;-65
2022/01/14 03:06:07;;;;;;;4.43;3.53;;;1.10;99.90;;;1.08;100.00;102737.59;5075540;28;20435;-65
2022/01/14 03:08:35;;;;;;;5.18;2.33;;;1.10;99.90;;;1.09;100.00;102732.44;5092436;28;20615;-65
2022/01/14 03:11:18;;;;;;;3.38;2.67;;;1.10;99.90;;;1.13;100.00;102733.31;5072515;28;20665;-65
2022/01/14 03:13:46;;;;;;;9.13;4.15;;;1.10;99.90;;;1.12;100.00;102731.59;5054818;28;20207;-65
2022/01/14 03:16:14;;;;;;;2.65;2.15;;;1.20;99.90;;;1.15;100.00;102740.16;5073514;28;20255;-65
2022/01/14 03:18:46;;;;;;;4.00;3.10;;;1.20;99.90;;;1.16;100.00;102734.16;5071184;28;20228;-65
2022/01/14 03:21:17;;;;;;;8.07;4.40;;;1.20;99.90;;;1.16;100.00;102738.44;5091299;28;20740;-65
2022/01/14 03:23:52;;;;;;;7.35;3.92;;;1.20;99.90;;;1.14;100.00;102733.31;5092020;28;20206;-65
2022/01/14 03:26:21;;;;;;;8.32;4.20;;;1.10;99.90;;;1.10;100.00;102735.88;5092723;28;20258;-65
2022/01/14 03:28:48;;;;;;;6.45;3.78;;;1.10;99.90;;;1.03;100.00;102731.56;5091810;28;20214;-65
2022/01/14 03:31:16;;;;;;;7.95;4.30;;;1.00;99.90;;;0.88;100.00;102731.56;5073760;28;20196;-65
2022/01/14 03:33:43;;;;;;;8.93;4.53;;;0.90;99.90;;;0.91;100.00;102741.88;5091503;28;20204;-65
2022/01/14 03:36:10;;;;;;;7.20;4.07;;;1.00;99.90;;;0.93;100.00;102738.44;5092790;28;20204;-65
2022/01/14 03:38:37;;;;;;;9.38;4.95;;;1.00;99.90;;;0.92;100.00;102739.28;5091527;28;20315;-65
2022/01/14 03:41:05;;;;;;;5.30;3.33;;;1.00;99.90;;;0.95;100.00;102739.31;5092111;28;20303;-66
2022/01/14 03:43:35;;;;;;;5.75;4.00;;;1.00;99.90;;;0.97;100.00;102735.00;5092604;28;20200;-64
2022/01/14 03:46:03;;;;;;;8.60;4.28;;;1.00;99.90;;;0.98;100.00;102723.88;5091584;28;20223;-65
2022/01/14 03:48:30;;;;;;;8.43;3.97;;;1.00;99.90;;;1.00;100.00;102734.16;5091938;28;20401;-64
2022/01/14 03:50:57;;;;;;;9.68;4.57;;;1.00;99.90;;;0.99;100.00;102735.00;5090826;28;20196;-65
2022/01/14 03:53:24;;;;;;;8.55;3.70;;;1.00;99.90;;;0.96;100.00;102729.88;5071747;28;20203;-65
2022/01/14 03:55:51;;;;;;;8.70;3.33;;;1.00;99.90;;;0.96;100.00;102725.56;5087489;28;20200;-64
2022/01/14 03:58:37;;;;;;;8.00;4.70;;;1.00;99.90;;;0.92;100.00;102731.56;5075498;28;20263;-64
2022/01/14 04:01:06;;;;;;;5.60;3.42;;;1.00;99.90;;;0.90;100.00;102735.00;5091431;28;20210;-65
2022/01/14 04:03:34;;;;;;;12.60;5.50;;;0.90;99.90;;;0.85;100.00;102731.56;5085881;28;20228;-65
2022/01/14 04:06:01;;;;;;;8.43;4.20;;;0.90;99.90;;;0.87;100.00;102729.88;5089233;28;20246;-64
2022/01/14 04:08:28;;;;;;;9.10;4.50;;;0.90;99.90;;;0.83;100.00;102723.88;5063257;28;20232;-65
2022/01/14 04:10:57;;;;;;;6.60;4.07;;;0.90;99.90;;;0.78;100.00;102720.44;5091171;28;20199;-65
2022/01/14 04:13:37;;;;;;;9.77;4.72;;;0.80;99.90;;;0.83;100.00;102728.16;5073682;28;20203;-65
2022/01/14 04:16:06;;;;;;;6.82;4.43;;;0.90;99.90;;;0.75;100.00;102730.69;5074876;28;20212;-65
2022/01/14 04:18:33;;;;;;;10.85;4.90;;;0.80;99.90;;;0.77;100.00;102729.84;5091370;28;20307;-65
2022/01/14 04:21:01;;;;;;;7.20;3.67;;;0.80;99.90;;;0.72;100.00;102725.56;5072706;28;20490;-66
2022/01/14 04:23:28;;;;;;;5.00;3.50;;;0.80;99.90;;;0.78;100.00;102718.72;5090448;28;20204;-64
2022/01/14 04:25:56;;;;;;;9.40;4.57;;;0.90;99.90;;;0.74;100.00;102716.16;5090623;28;20225;-65
2022/01/14 04:28:26;;;;;;;6.70;3.33;;;0.80;99.90;;;0.76;100.00;102706.72;5090790;28;20228;-64
2022/01/14 04:30:54;;;;;;;10.27;4.82;;;0.80;99.90;;;0.81;100.00;102715.28;5072729;28;20283;-65
2022/01/14 04:33:28;;;;;;;7.28;3.85;;;0.80;99.90;;;0.82;100.00;102705.88;5072924;28;20241;-65
2022/01/14 04:35:58;;;;;;;7.55;4.25;;;0.80;99.90;;;0.82;100.00;102716.16;5054618;28;20200;-65
2022/01/14 04:38:27;;;;;;;7.03;3.85;;;0.80;99.90;;;0.78;100.00;102705.88;5070530;28;20224;-65
2022/01/14 04:40:55;;;;;;;7.80;4.07;;;0.80;99.90;;;0.80;100.00;102708.44;5071226;28;20766;-65
2022/01/14 04:43:22;;;;;;;6.60;4.32;;;0.80;99.90;;;0.83;100.00;102707.59;5091028;28;20204;-65
2022/01/14 04:48:35;;;;;;;13.98;5.22;;;0.90;99.90;;;0.83;100.00;102716.16;5074118;28;20230;-64
2022/01/14 04:51:06;;;;;;;11.50;3.97;;;0.90;99.90;;;0.80;100.00;102703.31;5090487;28;20217;-66
2022/01/14 04:53:34;;;;;;;9.30;4.40;;;0.80;99.90;;;0.87;100.00;102701.59;5072241;28;20204;-65
2022/01/14 04:56:01;;;;;;;7.07;3.83;;;0.90;99.90;;;0.88;100.00;102696.44;5071363;28;20211;-65
2022/01/14 04:58:29;;;;;;;4.97;3.10;;;0.90;99.90;;;0.92;100.00;102684.44;5089754;28;20231;-64
2022/01/14 05:00:56;;;;;;;4.47;2.30;;;1.00;99.90;;;0.98;100.00;102682.72;5091919;28;20230;-65
2022/01/14 05:03:23;;;;;;;2.22;2.03;;;1.00;99.90;;;1.00;100.00;102675.03;5090393;28;20677;-65
2022/01/14 05:05:54;;;;;;;6.68;2.70;;;1.00;99.90;;;0.99;100.00;102679.31;5071425;28;20297;-65
2022/01/14 05:08:42;;;;;;;4.38;2.45;;;1.00;99.90;;;0.97;100.00;102678.47;5118172;22;21766;-63
2022/01/14 05:13:44;;;;;;;3.38;1.90;;;1.00;99.90;;;0.88;100.00;102673.31;5050117;28;20188;-63
2022/01/14 05:16:11;;;;;;;2.60;1.70;;;0.90;99.90;;;0.83;100.00;102671.63;5069066;28;20196;-64
2022/01/14 05:18:38;;;;;;;4.90;2.28;;;0.80;99.90;;;0.77;100.00;102663.03;5035415;28;20298;-62
2022/01/14 05:21:05;;;;;;;5.53;2.70;;;0.80;99.90;;;0.77;100.00;102667.31;5068696;28;20200;-63
2022/01/14 05:23:33;;;;;;;3.15;1.38;;;0.80;99.90;;;0.73;100.00;102663.88;5069835;28;20220;-63
2022/01/14 05:26:00;;;;;;;2.50;2.25;;;0.70;99.90;;;0.74;100.00;102667.31;5051958;28;20720;-64
2022/01/14 05:28:27;;;;;;;5.18;2.88;;;0.70;99.90;;;0.75;100.00;102658.75;5051863;28;20598;-63
2022/01/14 05:30:54;;;;;;;5.00;2.90;;;0.70;99.90;;;0.79;100.00;102670.72;5069134;28;20200;-63
2022/01/14 05:33:21;;;;;;;8.88;4.22;;;0.80;99.90;;;0.78;100.00;102676.75;5069732;28;20205;-61
2022/01/14 05:35:48;;;;;;;0.32;0.32;;;0.80;99.90;;;0.84;100.00;102669.03;5069236;28;20247;-62
2022/01/14 05:38:15;;;;;;;5.15;3.25;;;0.90;99.90;;;0.89;100.00;102667.34;5052384;28;20225;-63
2022/01/14 05:40:42;;;;;;;8.27;3.03;;;0.90;99.90;;;0.89;100.00;102669.03;5050498;28;20197;-64
2022/01/14 05:43:09;;;;;;;8.40;3.55;;;0.90;99.90;;;0.92;100.00;102664.75;5068857;28;20572;-61
2022/01/14 05:45:36;;;;;;;11.25;4.03;;;1.00;99.90;;;0.96;100.00;102658.75;5045066;28;20714;-64
2022/01/14 05:48:04;;;;;;;3.08;2.17;;;1.00;99.90;;;0.94;100.00;102657.06;5066962;28;20292;-65
2022/01/14 05:50:31;;;;;;;8.27;3.25;;;1.00;99.90;;;0.89;100.00;102657.06;5051479;28;20696;-64
2022/01/14 05:52:58;;;;;;;1.73;1.27;;;0.90;99.90;;;0.78;100.00;102662.19;5050198;28;20214;-63
2022/01/14 05:55:25;;;;;;;1.55;1.45;;;0.80;99.90;;;0.74;100.00;102657.03;5069117;28;20217;-63
2022/01/14 05:57:52;;;;;;;5.03;3.10;;;0.80;99.90;;;0.71;100.00;102657.03;5054540;28;20284;-64
2022/01/14 06:00:21;;;;;;;4.35;3.25;;;0.70;99.90;;;0.72;100.00;102657.03;5067715;28;20279;-64
2022/01/14 06:02:49;;;;;;;8.88;3.83;;;0.70;99.90;;;0.76;100.00;102656.19;5069439;28;20219;-62
2022/01/14 06:05:18;;;;;;;5.35;2.80;;;0.80;99.90;;;0.79;100.00;102655.31;5051456;28;20212;-63
2022/01/14 06:07:45;;;;;;;4.25;2.97;;;0.90;99.90;;;0.80;100.00;102654.47;5068212;28;20227;-64
2022/01/14 06:10:14;;;;;;;4.05;2.88;;;0.90;99.90;;;0.79;100.00;102648.47;5068398;28;20307;-64
2022/01/14 06:12:41;;;;;;;6.43;3.83;;;0.90;99.90;;;0.80;100.00;102641.63;5051705;28;20642;-62
2022/01/14 06:15:08;;;;;;;9.32;4.78;;;0.90;99.90;;;0.84;100.00;102642.47;5068391;28;20197;-63
2022/01/14 06:17:35;;;;;;;11.13;4.00;;;0.90;99.90;;;0.81;100.00;102643.31;5051347;28;20230;-64
2022/01/14 06:20:04;;;;;;;5.95;2.80;;;0.90;99.90;;;0.84;100.00;102653.63;5050701;28;20224;-64
2022/01/14 06:22:31;;;;;;;4.30;3.03;;;0.90;99.90;;;0.83;100.00;102659.63;5069163;28;20208;-62
2022/01/14 06:25:00;;;;;;;10.85;4.00;;;0.90;99.90;;;0.84;100.00;102651.03;5050854;28;20199;-62
2022/01/14 06:27:27;;;;;;;4.05;2.85;;;0.90;99.90;;;0.82;100.00;102655.31;5051700;28;20224;-64
2022/01/14 06:29:54;;;;;;;9.68;4.70;;;0.90;99.90;;;0.81;100.00;102663.06;5068669;28;20252;-63
2022/01/14 06:32:21;;;;;;;4.22;2.78;;;0.90;99.90;;;0.78;100.00;102664.75;5068831;28;20208;-66
2022/01/14 06:34:48;;;;;;;14.35;6.45;;;0.90;99.90;;;0.79;100.00;102665.59;5068621;28;20203;-64
2022/01/14 06:37:16;;;;;;;9.18;4.22;;;0.90;99.90;;;0.79;100.00;102665.59;5066947;28;20540;-64
2022/01/14 06:39:43;;;;;;;13.02;5.43;;;0.90;99.90;;;0.81;100.00;102663.06;5068273;28;20786;-63
2022/01/14 06:42:10;;;;;;;9.32;4.93;;;0.90;99.90;;;0.70;100.00;102675.91;5068332;28;20201;-64
2022/01/14 06:44:37;;;;;;;4.15;3.05;;;0.80;99.90;;;0.68;100.00;102664.75;5068875;28;20243;-63
2022/01/14 06:47:05;;;;;;;5.68;3.65;;;0.80;99.90;;;0.62;100.00;102668.16;5030244;28;20228;-64
2022/01/14 06:49:32;;;;;;;5.03;2.55;;;0.70;99.90;;;0.52;100.00;102673.28;5030979;28;20221;-64
2022/01/14 06:52:00;;;;;;;21.58;1.48;;;0.60;99.90;;;0.44;100.00;102657.00;5066566;28;20200;-64
2022/01/14 06:54:27;;;;;;;1.23;1.20;;;0.50;99.90;;;0.33;100.00;102663.81;5061500;28;20360;-62
2022/01/14 06:56:54;;;;;;;5.90;3.22;;;0.40;99.90;;;0.35;100.00;102669.81;5052951;28;20206;-64
2022/01/14 06:59:21;;;;;;;5.78;3.15;;;0.40;99.90;;;0.37;100.00;102663.84;5072284;28;20231;-64
2022/01/14 07:01:48;;;;;;;3.38;1.98;;;0.40;99.90;;;0.38;100.00;102664.72;5072047;28;20295;-64
2022/01/14 07:04:15;;;;;;;6.03;3.67;;;0.40;99.90;;;0.32;100.00;102657.00;5071023;28;20295;-64
2022/01/14 07:06:41;;;;;;;1.40;1.20;;;0.40;99.90;;;0.30;100.00;102659.53;5071840;28;20235;-63
2022/01/14 07:09:08;;;;;;;0.75;0.73;;;0.40;99.90;;;0.32;100.00;102659.56;5070831;28;22114;-65
2022/01/14 07:11:37;;;;;;;5.85;3.42;;;0.30;99.90;;;0.30;100.00;102661.28;5063557;28;20197;-64
2022/01/14 07:14:06;;;;;;;3.90;2.47;;;0.30;99.90;;;0.29;100.00;102662.97;5071981;28;20197;-64
2022/01/14 07:16:34;;;;;;;7.95;2.05;;;0.30;99.90;;;0.20;100.00;102675.78;5071851;28;20291;-63
2022/01/14 07:19:03;;;;;;;4.15;2.97;;;0.30;99.90;;;0.25;100.00;102670.66;5052925;28;20890;-62
2022/01/14 07:21:34;;;;;;;3.88;2.85;;;0.30;99.90;;;0.30;100.00;102671.53;5054656;28;20283;-63
2022/01/14 07:24:03;;;;;;;6.78;4.22;;;0.30;99.90;;;0.32;100.00;102670.66;5071504;28;20621;-64
2022/01/14 07:26:30;;;;;;;6.40;4.40;;;0.40;99.90;;;0.32;100.00;102675.81;5087315;28;20716;-64
2022/01/14 07:28:57;;;;;;;2.78;2.53;;;0.40;99.90;;;0.30;100.00;102684.38;5081182;28;20304;-64
2022/01/14 07:31:24;;;;;;;0.60;0.55;;;0.40;99.90;;;0.25;100.00;102684.38;5070834;28;20643;-64
2022/01/14 07:33:51;;;;;;;1.85;1.75;;;0.40;99.90;;;0.20;100.00;102677.47;5053549;28;20200;-65
2022/01/14 07:36:18;;;;;;;2.75;2.58;;;0.20;99.90;;;0.18;100.00;102679.19;5071464;28;20211;-67
2022/01/14 07:38:45;;;;;;;4.55;3.25;;;0.30;99.90;;;0.13;100.00;102673.19;5070668;28;20234;-63
2022/01/14 07:41:12;;;;;;;5.15;3.67;;;0.20;99.90;;;0.09;100.00;102684.28;5071515;28;20295;-64
2022/01/14 07:43:39;;;;;;;7.78;4.53;;;0.20;99.90;;;0.14;100.00;102685.16;5070814;28;20201;-64
2022/01/14 07:46:06;;;;;;;2.40;1.92;;;0.20;99.90;;;0.20;100.00;102686.06;5071369;28;20275;-65
2022/01/14 07:48:33;;;;;;;2.30;2.05;;;0.30;99.90;;;0.18;100.00;102685.19;5052641;28;20216;-63
2022/01/14 07:51:00;;;;;;;3.05;1.85;;;0.30;99.90;;;0.23;100.00;102693.78;5071731;28;20209;-63
2022/01/14 07:53:27;;;;;;;1.45;1.23;;;0.30;99.90;;;0.17;100.00;102698.03;5069754;28;20611;-63
2022/01/14 07:55:55;;;;;;;5.68;1.80;;;0.30;99.90;;;0.23;100.00;102703.19;5049931;28;20193;-63
2022/01/14 07:58:23;;;;;;;6.13;3.63;;;0.30;99.90;;;0.27;100.00;102707.47;5054404;28;20387;-61
2022/01/14 08:00:51;;;;;;;2.33;1.98;;;0.40;99.90;;;0.33;100.00;102702.34;5069602;28;20200;-64
2022/01/14 08:03:18;;;;;;;9.23;3.88;;;0.40;99.90;;;0.33;100.00;102705.78;5072081;28;20585;-61
2022/01/14 08:05:47;;;;;;;2.58;2.03;;;0.50;99.90;;;0.36;100.00;102699.81;5070998;28;20690;-64
2022/01/14 08:08:14;;;;;;;4.78;3.30;;;0.50;99.90;;;0.38;100.00;102705.78;5070901;28;20247;-65
2022/01/14 08:10:41;;;;;;;5.85;3.55;;;0.50;99.90;;;0.42;100.00;102705.81;5070417;28;20197;-63
2022/01/14 08:13:08;;;;;;;9.98;5.65;;;0.50;99.90;;;0.49;100.00;102717.78;5071495;28;20691;-64
2022/01/14 08:15:35;;;;;;;7.28;3.83;;;0.60;99.90;;;0.56;100.00;102709.25;5043806;28;20322;-61
2022/01/14 08:18:03;;;;;;;5.55;4.13;;;0.70;99.90;;;0.65;100.00;102708.41;5050170;28;20226;-60
2022/01/14 08:20:30;;;;;;;5.80;3.33;;;0.80;99.90;;;0.70;100.00;102712.69;5069705;28;20205;-63
2022/01/14 08:22:58;;;;;;;4.00;2.78;;;0.90;99.90;;;0.74;100.00;102713.56;5070496;28;20308;-63
2022/01/14 08:25:26;;;;;;;3.72;2.92;;;0.90;99.90;;;0.72;99.91;102708.41;5075202;28;20204;-62
2022/01/14 08:27:53;;;;;;;2.47;2.15;;;0.90;99.90;;;0.75;100.00;102705.00;5072745;28;20221;-61
2022/01/14 08:30:21;;;;;;;5.10;3.25;;;0.90;99.90;;;0.76;99.83;102706.72;5070104;28;20193;-65
2022/01/14 08:32:48;;;;;;;6.35;3.55;;;0.90;99.90;;;0.82;100.00;102711.88;5070604;28;20212;-61
2022/01/14 08:35:15;;;;;;;7.80;4.75;;;0.90;99.90;;;0.85;99.53;102716.16;5069628;28;20204;-63
2022/01/14 08:37:42;;;;;;;5.20;4.13;;;1.00;99.90;;;0.87;99.60;102715.31;5071109;28;20209;-65
2022/01/14 08:40:10;;;;;;;0.95;0.95;;;1.00;99.90;;;0.87;99.41;102719.59;5065306;28;20315;-64
2022/01/14 08:42:38;;;;;;;12.70;4.15;;;1.10;99.90;;;0.78;98.83;102718.72;5067317;28;20209;-64
2022/01/14 08:45:07;;;;;;;9.30;3.38;;;1.00;99.90;;;0.75;98.76;102720.41;5068660;28;20303;-64
2022/01/14 08:47:39;;;;;;;1.17;1.17;;;0.90;99.90;;;0.75;98.49;102711.00;5070725;28;20251;-64
2022/01/14 08:50:07;;;;;;;3.90;3.00;;;0.90;99.90;;;0.65;98.29;102717.00;5068931;28;20339;-64
2022/01/14 08:52:34;;;;;;;11.45;4.85;;;0.70;99.90;;;0.70;98.42;102712.69;5058132;28;20292;-65
2022/01/14 08:55:01;;;;;;;13.15;6.80;;;0.80;99.90;;;0.72;98.65;102710.16;5050821;28;20200;-63
2022/01/14 08:57:28;;;;;;;14.32;6.18;;;0.80;99.90;;;0.75;98.93;102711.00;5051691;28;20204;-62
2022/01/14 08:59:55;;;;;;;12.82;4.82;;;0.90;99.90;;;0.83;99.11;102708.47;5069140;28;20241;-64
2022/01/14 09:02:22;;;;;;;15.60;7.40;;;1.00;99.90;;;0.92;98.94;102713.59;5069476;28;20201;-63
2022/01/14 09:04:49;;;;;;;13.38;6.00;;;1.10;99.90;;;1.02;98.61;102709.31;5051681;28;20292;-61
2022/01/14 09:07:16;;;;;;;10.38;5.18;;;1.20;99.90;;;1.07;98.74;102713.59;5062275;28;20222;-64
2022/01/14 09:09:43;;;;;;;13.02;5.65;;;1.30;99.90;;;1.09;98.64;102714.44;5051115;28;20228;-64
2022/01/14 09:12:14;;;;;;;3.10;2.88;;;1.30;99.90;;;1.02;97.58;102715.31;5069335;28;20196;-61
2022/01/14 09:14:40;;;;;;;9.93;5.47;;;1.20;99.90;;;1.02;97.63;102710.19;5069196;28;20565;-64
2022/01/14 09:17:07;;;;;;;11.75;5.80;;;1.10;99.90;;;1.08;97.65;102714.44;5051167;28;20200;-62
2022/01/14 09:19:35;;;;;;;3.60;1.92;;;1.20;99.90;;;0.93;97.03;102715.31;5070326;28;20235;-63
2022/01/14 09:22:03;;;;;;;7.68;3.17;;;1.10;99.90;;;0.90;97.06;102712.72;5072838;28;20212;-63
2022/01/14 09:24:49;;;;;;;9.13;3.65;;;1.00;99.90;;;0.95;96.63;102713.59;5072992;28;20216;-62
2022/01/14 09:27:17;;;;;;;3.05;1.30;;;1.10;99.90;;;0.91;96.50;102705.88;5069947;28;20220;-64
2022/01/14 09:29:44;;;;;;;7.68;3.95;;;1.00;99.90;;;0.85;97.01;102709.31;5051887;28;20216;-62
2022/01/14 09:32:11;;;;;;;7.10;4.43;;;0.90;99.90;;;0.83;97.70;102710.16;5034721;28;20196;-64
2022/01/14 09:34:38;;;;;;;11.23;5.57;;;0.90;99.90;;;0.88;97.25;102706.72;5052395;28;20207;-64
2022/01/14 09:37:05;;;;;;;7.05;3.95;;;1.00;99.90;;;1.00;97.15;102709.28;5049978;28;20215;-64
2022/01/14 09:39:34;;;;;;;13.45;6.35;;;1.10;99.90;;;0.86;97.26;102699.88;5070091;28;20230;-63
2022/01/14 09:42:04;;;;;;;10.73;3.38;;;1.10;99.90;;;0.93;97.14;102696.44;5052558;28;20226;-65
2022/01/14 09:44:31;;;;;;;12.38;4.90;;;1.00;99.90;;;0.93;97.17;102693.88;5053092;28;20205;-63
2022/01/14 09:46:58;;;;;;;23.67;10.73;;;1.10;99.90;;;1.04;97.03;102694.75;5069192;28;20220;-63
2022/01/14 09:49:26;;;;;;;19.67;7.72;;;1.10;99.90;;;1.16;97.50;102695.59;5069547;28;20259;-63
2022/01/14 09:51:53;;;;;;;21.13;9.95;;;1.30;99.90;;;1.33;97.05;102698.16;5069410;28;20204;-64
2022/01/14 09:54:21;;;;;;;16.85;7.32;;;1.60;99.90;;;1.52;96.36;102704.97;5070261;28;20287;-63
2022/01/14 09:56:48;;;;;;;9.07;4.20;;;1.80;99.90;;;1.65;95.72;102709.25;5060636;28;20305;-63
2022/01/14 09:59:17;;;;;;;6.18;3.17;;;2.00;99.90;;;1.62;94.50;102711.81;5066258;28;20220;-64
2022/01/14 10:01:48;;;;;;;6.55;2.75;;;1.90;99.90;;;1.61;94.50;102699.81;5034166;28;20199;-63
2022/01/14 10:04:21;;;;;;;4.80;1.58;;;1.90;99.90;;;1.38;95.05;102697.31;5046392;28;20559;-63
2022/01/14 10:06:57;;;;;;;8.45;4.22;;;1.60;99.90;;;1.26;95.16;102702.44;5050038;28;20295;-63
2022/01/14 10:09:42;;;;;;;2.42;1.33;;;1.50;99.90;;;1.28;95.58;102698.16;5048780;28;20227;-65
2022/01/14 10:12:20;;;;;;;2.63;1.85;;;1.40;99.90;;;1.26;96.20;102694.72;5053787;28;20296;-63
2022/01/14 10:14:57;;;;;;;11.55;5.75;;;1.40;99.90;;;1.32;95.68;102691.31;5069167;28;20299;-65
2022/01/14 10:17:38;;;;;;;11.07;4.45;;;1.50;99.90;;;1.35;96.18;102699.00;5068913;28;20200;-65
2022/01/14 10:20:08;;;;;;;19.80;8.15;;;1.50;99.90;;;1.43;95.11;102692.13;5061957;28;20315;-62
2022/01/14 10:22:40;;;;;;;15.07;6.97;;;1.60;99.90;;;1.43;95.17;102689.53;5049677;28;20201;-64
2022/01/14 10:25:18;;;;;;;24.33;9.45;;;1.60;99.90;;;1.49;95.45;102692.97;5062867;28;20208;-64
2022/01/14 10:27:54;;;;;;;25.20;9.43;;;1.70;99.90;;;1.49;95.34;102689.56;5070182;28;20274;-65
2022/01/14 10:30:25;;;;;;;18.30;7.85;;;1.70;99.90;;;1.52;95.11;102687.81;5071586;28;20240;-65
2022/01/14 10:32:59;;;;;;;23.90;10.05;;;1.70;99.90;;;1.59;94.97;102683.53;5074070;28;20716;-65
2022/01/14 10:35:29;;;;;;;14.00;6.35;;;1.80;99.90;;;1.55;94.17;102677.50;5072621;28;20201;-64
2022/01/14 10:38:00;;;;;;;8.85;3.80;;;1.70;99.90;;;1.60;94.20;102679.25;5076048;28;20681;-63
2022/01/14 10:40:30;;;;;;;11.38;5.13;;;1.80;99.90;;;1.61;94.36;102674.09;5072772;28;20208;-62
2022/01/14 10:43:06;;;;;;;14.65;5.28;;;1.80;99.90;;;1.64;94.84;102670.66;5071560;28;20292;-62
2022/01/14 10:45:55;;;;;;;4.13;2.60;;;1.90;99.90;;;1.54;94.67;102655.22;5056134;28;20673;-63
2022/01/14 10:48:32;;;;;;;15.65;6.15;;;1.80;99.90;;;1.75;94.44;102666.31;5047491;28;20255;-64
2022/01/14 10:51:05;;;;;;;14.88;5.50;;;1.90;99.90;;;1.86;94.61;102652.53;5071266;28;20289;-65
2022/01/14 10:53:39;;;;;;;26.17;10.07;;;2.10;99.90;;;2.02;94.07;102663.63;5049772;28;20338;-62